sensor_id;sensor_type;location;lat;lon;timestamp;P1;durP1;ratioP1;P2;durP2;ratioP2
7575;SDS011;3829;50.798;4.358;2023-04-09T00:00:22;29.77;;;17.17;;
7575;SDS011;3829;50.798;4.358;2023-04-09T00:02:48;27.87;;;17.27;;
7575;SDS011;3829;50.798;4.358;2023-04-09T00:05:13;26.03;;;15.57;;
7575;SDS011;3829;50.798;4.358;2023-04-09T00:07:39;26.03;;;16.77;;
7575;SDS011;3829;50.798;4.358;2023-04-09T00:10:05;26.83;;;15.57;;
7575;SDS011;3829;50.798;4.358;2023-04-09T00:12:31;27.77;;;16.33;;
7575;SDS011;3829;50.798;4.358;2023-04-09T00:14:56;29.50;;;16.40;;
7575;SDS011;3829;50.798;4.358;2023-04-09T00:17:22;27.30;;;16.37;;
7575;SDS011;3829;50.798;4.358;2023-04-09T00:19:48;27.80;;;16.97;;
7575;SDS011;3829;50.798;4.358;2023-04-09T00:22:13;25.83;;;16.27;;
7575;SDS011;3829;50.798;4.358;2023-04-09T00:24:39;27.37;;;16.20;;
7575;SDS011;3829;50.798;4.358;2023-04-09T00:27:05;31.40;;;16.97;;
7575;SDS011;3829;50.798;4.358;2023-04-09T00:29:31;30.53;;;16.07;;
7575;SDS011;3829;50.798;4.358;2023-04-09T00:31:56;29.63;;;18.27;;
7575;SDS011;3829;50.798;4.358;2023-04-09T00:34:22;30.37;;;17.70;;
7575;SDS011;3829;50.798;4.358;2023-04-09T00:36:47;32.10;;;18.10;;
7575;SDS011;3829;50.798;4.358;2023-04-09T00:39:13;30.00;;;18.00;;
7575;SDS011;3829;50.798;4.358;2023-04-09T00:41:39;32.93;;;19.20;;
7575;SDS011;3829;50.798;4.358;2023-04-09T00:44:04;33.83;;;18.30;;
7575;SDS011;3829;50.798;4.358;2023-04-09T00:46:30;29.70;;;16.77;;
7575;SDS011;3829;50.798;4.358;2023-04-09T00:48:56;40.37;;;19.50;;
7575;SDS011;3829;50.798;4.358;2023-04-09T00:51:22;33.23;;;17.60;;
7575;SDS011;3829;50.798;4.358;2023-04-09T00:53:48;33.63;;;18.90;;
7575;SDS011;3829;50.798;4.358;2023-04-09T00:56:14;35.73;;;19.13;;
7575;SDS011;3829;50.798;4.358;2023-04-09T00:58:41;35.83;;;19.77;;
7575;SDS011;3829;50.798;4.358;2023-04-09T01:01:07;35.37;;;20.13;;
7575;SDS011;3829;50.798;4.358;2023-04-09T01:03:32;35.40;;;20.17;;
7575;SDS011;3829;50.798;4.358;2023-04-09T01:11:37;31.60;;;18.47;;
7575;SDS011;3829;50.798;4.358;2023-04-09T01:14:13;36.27;;;19.93;;
7575;SDS011;3829;50.798;4.358;2023-04-09T01:17:05;30.60;;;18.27;;
7575;SDS011;3829;50.798;4.358;2023-04-09T01:25:22;39.23;;;20.00;;
7575;SDS011;3829;50.798;4.358;2023-04-09T01:31:03;37.53;;;20.43;;
7575;SDS011;3829;50.798;4.358;2023-04-09T01:33:35;41.07;;;22.10;;
7575;SDS011;3829;50.798;4.358;2023-04-09T01:36:03;43.40;;;22.80;;
7575;SDS011;3829;50.798;4.358;2023-04-09T01:38:30;46.00;;;22.33;;
7575;SDS011;3829;50.798;4.358;2023-04-09T01:40:57;43.10;;;23.30;;
7575;SDS011;3829;50.798;4.358;2023-04-09T01:43:25;41.10;;;22.90;;
7575;SDS011;3829;50.798;4.358;2023-04-09T01:45:51;41.90;;;23.67;;
7575;SDS011;3829;50.798;4.358;2023-04-09T01:48:18;43.87;;;23.80;;
7575;SDS011;3829;50.798;4.358;2023-04-09T01:50:45;43.33;;;23.03;;
7575;SDS011;3829;50.798;4.358;2023-04-09T01:53:11;48.27;;;24.33;;
7575;SDS011;3829;50.798;4.358;2023-04-09T01:55:37;46.93;;;24.40;;
7575;SDS011;3829;50.798;4.358;2023-04-09T01:58:03;44.90;;;23.03;;
7575;SDS011;3829;50.798;4.358;2023-04-09T02:00:30;50.30;;;26.30;;
7575;SDS011;3829;50.798;4.358;2023-04-09T02:05:36;50.40;;;24.73;;
7575;SDS011;3829;50.798;4.358;2023-04-09T02:08:06;53.17;;;26.77;;
7575;SDS011;3829;50.798;4.358;2023-04-09T02:10:35;53.73;;;27.23;;
7575;SDS011;3829;50.798;4.358;2023-04-09T02:13:03;52.67;;;26.57;;
7575;SDS011;3829;50.798;4.358;2023-04-09T02:15:31;56.93;;;27.27;;
7575;SDS011;3829;50.798;4.358;2023-04-09T02:18:00;54.80;;;25.60;;
7575;SDS011;3829;50.798;4.358;2023-04-09T02:20:26;55.40;;;27.03;;
7575;SDS011;3829;50.798;4.358;2023-04-09T02:22:52;56.83;;;27.13;;
7575;SDS011;3829;50.798;4.358;2023-04-09T02:25:17;60.70;;;27.27;;
7575;SDS011;3829;50.798;4.358;2023-04-09T02:27:43;53.73;;;26.70;;
7575;SDS011;3829;50.798;4.358;2023-04-09T02:30:09;64.07;;;29.73;;
7575;SDS011;3829;50.798;4.358;2023-04-09T02:32:34;63.37;;;30.57;;
7575;SDS011;3829;50.798;4.358;2023-04-09T02:35:00;60.23;;;28.47;;
7575;SDS011;3829;50.798;4.358;2023-04-09T02:37:26;67.53;;;29.10;;
7575;SDS011;3829;50.798;4.358;2023-04-09T02:39:51;63.77;;;29.97;;
7575;SDS011;3829;50.798;4.358;2023-04-09T02:42:17;58.97;;;29.57;;
7575;SDS011;3829;50.798;4.358;2023-04-09T02:44:42;62.80;;;28.63;;
7575;SDS011;3829;50.798;4.358;2023-04-09T02:47:08;68.33;;;31.10;;
7575;SDS011;3829;50.798;4.358;2023-04-09T02:49:34;65.60;;;29.13;;
7575;SDS011;3829;50.798;4.358;2023-04-09T02:51:59;63.40;;;28.83;;
7575;SDS011;3829;50.798;4.358;2023-04-09T02:54:25;68.43;;;30.33;;
7575;SDS011;3829;50.798;4.358;2023-04-09T02:56:51;70.40;;;31.13;;
7575;SDS011;3829;50.798;4.358;2023-04-09T02:59:16;67.93;;;31.67;;
7575;SDS011;3829;50.798;4.358;2023-04-09T03:01:42;67.17;;;31.33;;
7575;SDS011;3829;50.798;4.358;2023-04-09T03:04:07;64.40;;;30.23;;
7575;SDS011;3829;50.798;4.358;2023-04-09T03:06:33;68.60;;;30.20;;
7575;SDS011;3829;50.798;4.358;2023-04-09T03:08:58;57.27;;;28.00;;
7575;SDS011;3829;50.798;4.358;2023-04-09T03:11:24;61.57;;;29.50;;
7575;SDS011;3829;50.798;4.358;2023-04-09T03:13:50;59.90;;;28.73;;
7575;SDS011;3829;50.798;4.358;2023-04-09T03:16:15;63.20;;;30.10;;
7575;SDS011;3829;50.798;4.358;2023-04-09T03:18:41;64.27;;;30.13;;
7575;SDS011;3829;50.798;4.358;2023-04-09T03:21:07;60.20;;;29.53;;
7575;SDS011;3829;50.798;4.358;2023-04-09T03:23:33;65.43;;;30.77;;
7575;SDS011;3829;50.798;4.358;2023-04-09T03:26:00;66.57;;;30.30;;
7575;SDS011;3829;50.798;4.358;2023-04-09T03:28:26;67.20;;;31.33;;
7575;SDS011;3829;50.798;4.358;2023-04-09T03:30:52;76.23;;;32.23;;
7575;SDS011;3829;50.798;4.358;2023-04-09T03:33:17;70.60;;;32.67;;
7575;SDS011;3829;50.798;4.358;2023-04-09T03:35:43;71.77;;;31.00;;
7575;SDS011;3829;50.798;4.358;2023-04-09T03:38:09;71.80;;;32.43;;
7575;SDS011;3829;50.798;4.358;2023-04-09T03:40:34;80.03;;;34.00;;
7575;SDS011;3829;50.798;4.358;2023-04-09T03:43:00;71.47;;;32.60;;
7575;SDS011;3829;50.798;4.358;2023-04-09T03:45:25;69.90;;;32.07;;
7575;SDS011;3829;50.798;4.358;2023-04-09T03:47:53;73.73;;;33.43;;
7575;SDS011;3829;50.798;4.358;2023-04-09T03:50:18;71.07;;;33.20;;
7575;SDS011;3829;50.798;4.358;2023-04-09T03:52:44;73.53;;;32.43;;
7575;SDS011;3829;50.798;4.358;2023-04-09T03:55:10;72.13;;;32.30;;
7575;SDS011;3829;50.798;4.358;2023-04-09T03:57:35;68.37;;;32.67;;
7575;SDS011;3829;50.798;4.358;2023-04-09T04:00:01;64.77;;;30.70;;
7575;SDS011;3829;50.798;4.358;2023-04-09T04:02:27;65.60;;;32.37;;
7575;SDS011;3829;50.798;4.358;2023-04-09T04:04:57;69.37;;;30.70;;
7575;SDS011;3829;50.798;4.358;2023-04-09T04:07:23;70.33;;;33.13;;
7575;SDS011;3829;50.798;4.358;2023-04-09T04:09:49;66.33;;;30.40;;
7575;SDS011;3829;50.798;4.358;2023-04-09T04:12:15;76.40;;;33.87;;
7575;SDS011;3829;50.798;4.358;2023-04-09T04:14:41;69.97;;;31.50;;
7575;SDS011;3829;50.798;4.358;2023-04-09T04:17:06;68.27;;;31.63;;
7575;SDS011;3829;50.798;4.358;2023-04-09T04:19:32;73.73;;;34.33;;
7575;SDS011;3829;50.798;4.358;2023-04-09T04:21:58;75.47;;;34.20;;
7575;SDS011;3829;50.798;4.358;2023-04-09T04:24:23;73.00;;;33.67;;
7575;SDS011;3829;50.798;4.358;2023-04-09T04:26:49;81.43;;;34.07;;
7575;SDS011;3829;50.798;4.358;2023-04-09T04:29:15;78.97;;;33.07;;
7575;SDS011;3829;50.798;4.358;2023-04-09T04:31:40;73.70;;;33.83;;
7575;SDS011;3829;50.798;4.358;2023-04-09T04:34:06;76.50;;;34.90;;
7575;SDS011;3829;50.798;4.358;2023-04-09T04:36:31;75.23;;;31.47;;
7575;SDS011;3829;50.798;4.358;2023-04-09T04:38:57;72.90;;;33.27;;
7575;SDS011;3829;50.798;4.358;2023-04-09T04:41:23;82.77;;;36.60;;
7575;SDS011;3829;50.798;4.358;2023-04-09T04:43:48;76.37;;;34.00;;
7575;SDS011;3829;50.798;4.358;2023-04-09T04:46:14;78.63;;;33.93;;
7575;SDS011;3829;50.798;4.358;2023-04-09T04:48:40;79.10;;;34.30;;
7575;SDS011;3829;50.798;4.358;2023-04-09T04:51:05;84.83;;;37.47;;
7575;SDS011;3829;50.798;4.358;2023-04-09T04:53:31;91.33;;;37.67;;
7575;SDS011;3829;50.798;4.358;2023-04-09T04:55:56;79.73;;;36.07;;
7575;SDS011;3829;50.798;4.358;2023-04-09T04:58:22;83.80;;;37.33;;
7575;SDS011;3829;50.798;4.358;2023-04-09T05:00:48;81.47;;;35.57;;
7575;SDS011;3829;50.798;4.358;2023-04-09T05:03:14;82.53;;;35.50;;
7575;SDS011;3829;50.798;4.358;2023-04-09T05:05:40;81.43;;;35.10;;
7575;SDS011;3829;50.798;4.358;2023-04-09T05:08:06;87.17;;;34.97;;
7575;SDS011;3829;50.798;4.358;2023-04-09T05:10:31;76.37;;;35.20;;
7575;SDS011;3829;50.798;4.358;2023-04-09T05:12:57;80.00;;;34.07;;
7575;SDS011;3829;50.798;4.358;2023-04-09T05:15:22;81.53;;;36.63;;
7575;SDS011;3829;50.798;4.358;2023-04-09T05:17:48;79.27;;;34.70;;
7575;SDS011;3829;50.798;4.358;2023-04-09T05:20:14;77.27;;;35.00;;
7575;SDS011;3829;50.798;4.358;2023-04-09T05:22:40;86.73;;;37.50;;
7575;SDS011;3829;50.798;4.358;2023-04-09T05:25:06;78.60;;;33.43;;
7575;SDS011;3829;50.798;4.358;2023-04-09T05:27:32;78.57;;;33.87;;
7575;SDS011;3829;50.798;4.358;2023-04-09T05:29:57;81.97;;;37.13;;
7575;SDS011;3829;50.798;4.358;2023-04-09T05:32:23;83.53;;;36.23;;
7575;SDS011;3829;50.798;4.358;2023-04-09T05:34:49;84.27;;;36.50;;
7575;SDS011;3829;50.798;4.358;2023-04-09T05:37:14;82.67;;;35.97;;
7575;SDS011;3829;50.798;4.358;2023-04-09T05:39:40;81.37;;;35.73;;
7575;SDS011;3829;50.798;4.358;2023-04-09T05:42:06;82.73;;;36.27;;
7575;SDS011;3829;50.798;4.358;2023-04-09T05:44:31;85.80;;;36.00;;
7575;SDS011;3829;50.798;4.358;2023-04-09T05:46:57;87.23;;;36.00;;
7575;SDS011;3829;50.798;4.358;2023-04-09T05:49:23;76.43;;;34.70;;
7575;SDS011;3829;50.798;4.358;2023-04-09T05:51:49;80.90;;;35.90;;
7575;SDS011;3829;50.798;4.358;2023-04-09T05:54:14;79.33;;;36.80;;
7575;SDS011;3829;50.798;4.358;2023-04-09T05:56:41;79.37;;;36.10;;
7575;SDS011;3829;50.798;4.358;2023-04-09T05:59:07;72.50;;;35.80;;
7575;SDS011;3829;50.798;4.358;2023-04-09T06:01:32;73.50;;;34.90;;
7575;SDS011;3829;50.798;4.358;2023-04-09T06:03:58;79.43;;;36.07;;
7575;SDS011;3829;50.798;4.358;2023-04-09T06:06:26;74.47;;;32.90;;
7575;SDS011;3829;50.798;4.358;2023-04-09T06:08:52;73.73;;;34.10;;
7575;SDS011;3829;50.798;4.358;2023-04-09T06:11:17;74.00;;;34.00;;
7575;SDS011;3829;50.798;4.358;2023-04-09T06:13:43;70.87;;;33.57;;
7575;SDS011;3829;50.798;4.358;2023-04-09T06:16:09;65.30;;;32.67;;
7575;SDS011;3829;50.798;4.358;2023-04-09T06:18:35;68.03;;;33.50;;
7575;SDS011;3829;50.798;4.358;2023-04-09T06:21:02;64.83;;;32.10;;
7575;SDS011;3829;50.798;4.358;2023-04-09T06:23:32;71.17;;;32.60;;
7575;SDS011;3829;50.798;4.358;2023-04-09T06:25:59;66.47;;;32.57;;
7575;SDS011;3829;50.798;4.358;2023-04-09T06:28:25;69.67;;;32.77;;
7575;SDS011;3829;50.798;4.358;2023-04-09T06:30:52;61.37;;;32.00;;
7575;SDS011;3829;50.798;4.358;2023-04-09T06:33:19;64.93;;;31.17;;
7575;SDS011;3829;50.798;4.358;2023-04-09T06:35:45;65.00;;;31.27;;
7575;SDS011;3829;50.798;4.358;2023-04-09T06:38:11;58.70;;;30.37;;
7575;SDS011;3829;50.798;4.358;2023-04-09T06:40:37;62.70;;;32.60;;
7575;SDS011;3829;50.798;4.358;2023-04-09T06:43:03;67.30;;;31.83;;
7575;SDS011;3829;50.798;4.358;2023-04-09T06:45:29;62.67;;;31.43;;
7575;SDS011;3829;50.798;4.358;2023-04-09T06:47:56;57.70;;;29.97;;
7575;SDS011;3829;50.798;4.358;2023-04-09T06:50:22;56.47;;;29.10;;
7575;SDS011;3829;50.798;4.358;2023-04-09T06:52:47;57.47;;;28.40;;
7575;SDS011;3829;50.798;4.358;2023-04-09T06:55:13;58.30;;;29.00;;
7575;SDS011;3829;50.798;4.358;2023-04-09T06:57:39;54.90;;;28.63;;
7575;SDS011;3829;50.798;4.358;2023-04-09T07:00:05;57.50;;;26.73;;
7575;SDS011;3829;50.798;4.358;2023-04-09T07:02:32;56.23;;;28.67;;
7575;SDS011;3829;50.798;4.358;2023-04-09T07:04:58;47.90;;;26.43;;
7575;SDS011;3829;50.798;4.358;2023-04-09T07:07:23;47.67;;;25.97;;
7575;SDS011;3829;50.798;4.358;2023-04-09T07:09:51;52.87;;;27.10;;
7575;SDS011;3829;50.798;4.358;2023-04-09T07:14:52;46.93;;;25.60;;
7575;SDS011;3829;50.798;4.358;2023-04-09T07:17:22;47.30;;;25.53;;
7575;SDS011;3829;50.798;4.358;2023-04-09T07:19:47;46.07;;;24.53;;
7575;SDS011;3829;50.798;4.358;2023-04-09T07:22:15;43.37;;;23.50;;
7575;SDS011;3829;50.798;4.358;2023-04-09T07:24:41;42.37;;;23.17;;
7575;SDS011;3829;50.798;4.358;2023-04-09T07:27:07;46.50;;;22.73;;
7575;SDS011;3829;50.798;4.358;2023-04-09T07:29:32;41.53;;;22.10;;
7575;SDS011;3829;50.798;4.358;2023-04-09T07:31:58;40.57;;;21.67;;
7575;SDS011;3829;50.798;4.358;2023-04-09T07:34:25;38.90;;;21.83;;
7575;SDS011;3829;50.798;4.358;2023-04-09T07:36:51;40.07;;;20.53;;
7575;SDS011;3829;50.798;4.358;2023-04-09T07:39:17;42.30;;;22.43;;
7575;SDS011;3829;50.798;4.358;2023-04-09T07:41:45;41.20;;;21.53;;
7575;SDS011;3829;50.798;4.358;2023-04-09T07:44:11;36.83;;;21.27;;
7575;SDS011;3829;50.798;4.358;2023-04-09T07:46:37;40.03;;;21.60;;
7575;SDS011;3829;50.798;4.358;2023-04-09T07:49:03;37.60;;;20.67;;
7575;SDS011;3829;50.798;4.358;2023-04-09T07:51:29;40.40;;;21.63;;
7575;SDS011;3829;50.798;4.358;2023-04-09T07:53:55;37.03;;;21.20;;
7575;SDS011;3829;50.798;4.358;2023-04-09T07:56:21;34.97;;;20.30;;
7575;SDS011;3829;50.798;4.358;2023-04-09T07:58:46;38.47;;;21.10;;
7575;SDS011;3829;50.798;4.358;2023-04-09T08:01:13;38.03;;;20.70;;
7575;SDS011;3829;50.798;4.358;2023-04-09T08:03:39;40.00;;;21.30;;
7575;SDS011;3829;50.798;4.358;2023-04-09T08:06:05;34.67;;;20.63;;
7575;SDS011;3829;50.798;4.358;2023-04-09T08:08:31;33.83;;;20.60;;
7575;SDS011;3829;50.798;4.358;2023-04-09T08:10:57;37.83;;;20.70;;
7575;SDS011;3829;50.798;4.358;2023-04-09T08:13:22;34.40;;;19.30;;
7575;SDS011;3829;50.798;4.358;2023-04-09T08:15:49;32.30;;;19.17;;
7575;SDS011;3829;50.798;4.358;2023-04-09T08:18:15;34.77;;;20.20;;
7575;SDS011;3829;50.798;4.358;2023-04-09T08:20:40;36.93;;;20.83;;
7575;SDS011;3829;50.798;4.358;2023-04-09T08:23:09;32.37;;;18.60;;
7575;SDS011;3829;50.798;4.358;2023-04-09T08:25:35;36.50;;;19.20;;
7575;SDS011;3829;50.798;4.358;2023-04-09T08:28:01;34.10;;;19.03;;
7575;SDS011;3829;50.798;4.358;2023-04-09T08:30:26;32.57;;;17.97;;
7575;SDS011;3829;50.798;4.358;2023-04-09T08:32:52;28.83;;;16.93;;
7575;SDS011;3829;50.798;4.358;2023-04-09T08:35:18;30.10;;;17.67;;
7575;SDS011;3829;50.798;4.358;2023-04-09T08:37:43;26.90;;;16.70;;
7575;SDS011;3829;50.798;4.358;2023-04-09T08:40:09;33.33;;;17.40;;
7575;SDS011;3829;50.798;4.358;2023-04-09T08:42:35;27.07;;;16.17;;
7575;SDS011;3829;50.798;4.358;2023-04-09T08:45:07;28.13;;;17.03;;
7575;SDS011;3829;50.798;4.358;2023-04-09T08:47:33;27.00;;;15.63;;
7575;SDS011;3829;50.798;4.358;2023-04-09T08:50:00;28.33;;;16.07;;
7575;SDS011;3829;50.798;4.358;2023-04-09T08:52:30;29.70;;;17.80;;
7575;SDS011;3829;50.798;4.358;2023-04-09T08:54:56;27.00;;;16.60;;
7575;SDS011;3829;50.798;4.358;2023-04-09T08:57:22;28.60;;;15.43;;
7575;SDS011;3829;50.798;4.358;2023-04-09T08:59:47;28.77;;;15.83;;
7575;SDS011;3829;50.798;4.358;2023-04-09T09:02:13;27.57;;;16.73;;
7575;SDS011;3829;50.798;4.358;2023-04-09T09:04:43;28.03;;;17.37;;
7575;SDS011;3829;50.798;4.358;2023-04-09T09:07:10;27.77;;;17.30;;
7575;SDS011;3829;50.798;4.358;2023-04-09T09:09:52;26.10;;;15.83;;
7575;SDS011;3829;50.798;4.358;2023-04-09T09:15:24;28.93;;;16.10;;
7575;SDS011;3829;50.798;4.358;2023-04-09T09:17:55;26.37;;;16.50;;
7575;SDS011;3829;50.798;4.358;2023-04-09T09:20:22;28.97;;;16.43;;
7575;SDS011;3829;50.798;4.358;2023-04-09T09:22:49;28.50;;;16.43;;
7575;SDS011;3829;50.798;4.358;2023-04-09T09:25:16;26.50;;;15.83;;
7575;SDS011;3829;50.798;4.358;2023-04-09T09:27:42;25.30;;;15.97;;
7575;SDS011;3829;50.798;4.358;2023-04-09T09:30:08;25.57;;;15.83;;
7575;SDS011;3829;50.798;4.358;2023-04-09T09:32:44;25.20;;;16.03;;
7575;SDS011;3829;50.798;4.358;2023-04-09T09:35:10;27.57;;;16.17;;
7575;SDS011;3829;50.798;4.358;2023-04-09T09:37:35;32.43;;;16.80;;
7575;SDS011;3829;50.798;4.358;2023-04-09T09:40:01;26.43;;;15.43;;
7575;SDS011;3829;50.798;4.358;2023-04-09T09:42:28;25.97;;;16.03;;
7575;SDS011;3829;50.798;4.358;2023-04-09T09:44:54;25.57;;;15.87;;
7575;SDS011;3829;50.798;4.358;2023-04-09T09:47:20;26.13;;;16.10;;
7575;SDS011;3829;50.798;4.358;2023-04-09T09:49:47;29.03;;;16.97;;
7575;SDS011;3829;50.798;4.358;2023-04-09T09:52:14;31.40;;;16.77;;
7575;SDS011;3829;50.798;4.358;2023-04-09T09:54:42;27.37;;;16.17;;
7575;SDS011;3829;50.798;4.358;2023-04-09T09:57:11;29.53;;;16.80;;
7575;SDS011;3829;50.798;4.358;2023-04-09T09:59:54;27.47;;;17.17;;
7575;SDS011;3829;50.798;4.358;2023-04-09T10:02:26;27.83;;;17.13;;
7575;SDS011;3829;50.798;4.358;2023-04-09T10:04:55;24.43;;;15.43;;
7575;SDS011;3829;50.798;4.358;2023-04-09T10:07:24;26.07;;;15.73;;
7575;SDS011;3829;50.798;4.358;2023-04-09T10:09:50;27.00;;;16.17;;
7575;SDS011;3829;50.798;4.358;2023-04-09T10:12:18;25.67;;;16.60;;
7575;SDS011;3829;50.798;4.358;2023-04-09T10:14:48;27.70;;;16.17;;
7575;SDS011;3829;50.798;4.358;2023-04-09T10:17:16;26.30;;;16.63;;
7575;SDS011;3829;50.798;4.358;2023-04-09T10:22:31;27.77;;;16.03;;
7575;SDS011;3829;50.798;4.358;2023-04-09T10:24:58;26.60;;;16.80;;
7575;SDS011;3829;50.798;4.358;2023-04-09T10:27:25;25.27;;;15.70;;
7575;SDS011;3829;50.798;4.358;2023-04-09T10:29:52;30.97;;;17.23;;
7575;SDS011;3829;50.798;4.358;2023-04-09T10:32:18;28.80;;;17.53;;
7575;SDS011;3829;50.798;4.358;2023-04-09T10:34:50;27.93;;;17.20;;
7575;SDS011;3829;50.798;4.358;2023-04-09T10:37:20;26.90;;;16.70;;
7575;SDS011;3829;50.798;4.358;2023-04-09T10:39:47;29.33;;;16.57;;
7575;SDS011;3829;50.798;4.358;2023-04-09T10:42:36;24.83;;;15.53;;
7575;SDS011;3829;50.798;4.358;2023-04-09T10:47:35;24.83;;;15.67;;
7575;SDS011;3829;50.798;4.358;2023-04-09T10:52:51;26.33;;;15.67;;
7575;SDS011;3829;50.798;4.358;2023-04-09T10:58:16;22.80;;;14.57;;
7575;SDS011;3829;50.798;4.358;2023-04-09T11:00:43;25.77;;;15.23;;
7575;SDS011;3829;50.798;4.358;2023-04-09T11:05:50;22.20;;;14.57;;
7575;SDS011;3829;50.798;4.358;2023-04-09T11:08:21;21.70;;;14.00;;
7575;SDS011;3829;50.798;4.358;2023-04-09T11:10:47;23.77;;;13.63;;
7575;SDS011;3829;50.798;4.358;2023-04-09T11:13:14;23.93;;;13.87;;
7575;SDS011;3829;50.798;4.358;2023-04-09T11:15:42;26.07;;;15.80;;
7575;SDS011;3829;50.798;4.358;2023-04-09T11:18:12;23.40;;;15.00;;
7575;SDS011;3829;50.798;4.358;2023-04-09T11:20:59;22.57;;;13.57;;
7575;SDS011;3829;50.798;4.358;2023-04-09T11:23:27;19.77;;;12.87;;
7575;SDS011;3829;50.798;4.358;2023-04-09T11:25:53;23.33;;;13.93;;
7575;SDS011;3829;50.798;4.358;2023-04-09T11:28:19;17.80;;;12.20;;
7575;SDS011;3829;50.798;4.358;2023-04-09T11:30:45;14.43;;;9.67;;
7575;SDS011;3829;50.798;4.358;2023-04-09T11:33:11;16.67;;;11.00;;
7575;SDS011;3829;50.798;4.358;2023-04-09T11:35:37;19.13;;;11.60;;
7575;SDS011;3829;50.798;4.358;2023-04-09T11:38:06;19.67;;;11.50;;
7575;SDS011;3829;50.798;4.358;2023-04-09T11:40:33;17.50;;;11.03;;
7575;SDS011;3829;50.798;4.358;2023-04-09T11:42:58;20.03;;;10.93;;
7575;SDS011;3829;50.798;4.358;2023-04-09T11:45:27;17.33;;;10.93;;
7575;SDS011;3829;50.798;4.358;2023-04-09T11:47:53;14.53;;;10.33;;
7575;SDS011;3829;50.798;4.358;2023-04-09T11:50:20;16.57;;;10.17;;
7575;SDS011;3829;50.798;4.358;2023-04-09T11:52:46;14.53;;;9.20;;
7575;SDS011;3829;50.798;4.358;2023-04-09T11:55:21;12.03;;;7.57;;
7575;SDS011;3829;50.798;4.358;2023-04-09T11:57:52;8.60;;;6.43;;
7575;SDS011;3829;50.798;4.358;2023-04-09T12:00:20;14.97;;;9.63;;
7575;SDS011;3829;50.798;4.358;2023-04-09T12:02:48;14.57;;;10.50;;
7575;SDS011;3829;50.798;4.358;2023-04-09T12:05:25;17.10;;;10.30;;
7575;SDS011;3829;50.798;4.358;2023-04-09T12:07:56;14.97;;;10.50;;
7575;SDS011;3829;50.798;4.358;2023-04-09T12:10:31;13.73;;;8.80;;
7575;SDS011;3829;50.798;4.358;2023-04-09T12:13:15;13.20;;;6.97;;
7575;SDS011;3829;50.798;4.358;2023-04-09T12:15:41;12.23;;;8.07;;
7575;SDS011;3829;50.798;4.358;2023-04-09T12:18:10;12.23;;;7.80;;
7575;SDS011;3829;50.798;4.358;2023-04-09T12:20:38;12.50;;;8.27;;
7575;SDS011;3829;50.798;4.358;2023-04-09T12:23:05;13.90;;;9.37;;
7575;SDS011;3829;50.798;4.358;2023-04-09T12:25:33;14.53;;;9.47;;
7575;SDS011;3829;50.798;4.358;2023-04-09T12:28:00;14.37;;;7.70;;
7575;SDS011;3829;50.798;4.358;2023-04-09T12:30:27;14.30;;;8.70;;
7575;SDS011;3829;50.798;4.358;2023-04-09T12:32:53;14.23;;;8.77;;
7575;SDS011;3829;50.798;4.358;2023-04-09T12:35:19;13.70;;;8.80;;
7575;SDS011;3829;50.798;4.358;2023-04-09T12:37:46;15.37;;;8.23;;
7575;SDS011;3829;50.798;4.358;2023-04-09T12:40:12;11.27;;;7.27;;
7575;SDS011;3829;50.798;4.358;2023-04-09T12:42:39;12.00;;;7.27;;
7575;SDS011;3829;50.798;4.358;2023-04-09T12:45:06;12.77;;;8.23;;
7575;SDS011;3829;50.798;4.358;2023-04-09T12:47:32;12.90;;;8.63;;
7575;SDS011;3829;50.798;4.358;2023-04-09T12:49:58;16.63;;;9.40;;
7575;SDS011;3829;50.798;4.358;2023-04-09T12:52:23;14.60;;;9.40;;
7575;SDS011;3829;50.798;4.358;2023-04-09T12:54:50;12.87;;;8.73;;
7575;SDS011;3829;50.798;4.358;2023-04-09T12:57:16;14.87;;;9.13;;
7575;SDS011;3829;50.798;4.358;2023-04-09T12:59:42;13.73;;;8.60;;
7575;SDS011;3829;50.798;4.358;2023-04-09T13:02:07;11.93;;;8.10;;
7575;SDS011;3829;50.798;4.358;2023-04-09T13:04:33;13.30;;;7.57;;
7575;SDS011;3829;50.798;4.358;2023-04-09T13:06:59;10.80;;;7.17;;
7575;SDS011;3829;50.798;4.358;2023-04-09T13:09:24;10.47;;;6.40;;
7575;SDS011;3829;50.798;4.358;2023-04-09T13:11:50;11.13;;;5.60;;
7575;SDS011;3829;50.798;4.358;2023-04-09T13:14:16;7.27;;;5.23;;
7575;SDS011;3829;50.798;4.358;2023-04-09T13:16:41;11.00;;;6.37;;
7575;SDS011;3829;50.798;4.358;2023-04-09T13:19:08;9.20;;;5.90;;
7575;SDS011;3829;50.798;4.358;2023-04-09T13:21:34;9.43;;;5.40;;
7575;SDS011;3829;50.798;4.358;2023-04-09T13:24:01;7.77;;;5.43;;
7575;SDS011;3829;50.798;4.358;2023-04-09T13:26:27;12.67;;;5.80;;
7575;SDS011;3829;50.798;4.358;2023-04-09T13:28:53;8.30;;;6.07;;
7575;SDS011;3829;50.798;4.358;2023-04-09T13:31:18;7.73;;;6.07;;
7575;SDS011;3829;50.798;4.358;2023-04-09T13:33:44;9.03;;;5.87;;
7575;SDS011;3829;50.798;4.358;2023-04-09T13:36:10;7.90;;;5.70;;
7575;SDS011;3829;50.798;4.358;2023-04-09T13:38:36;8.30;;;6.00;;
7575;SDS011;3829;50.798;4.358;2023-04-09T13:41:02;5.60;;;4.43;;
7575;SDS011;3829;50.798;4.358;2023-04-09T13:43:28;10.80;;;7.30;;
7575;SDS011;3829;50.798;4.358;2023-04-09T13:45:54;9.60;;;6.70;;
7575;SDS011;3829;50.798;4.358;2023-04-09T13:48:21;11.00;;;7.10;;
7575;SDS011;3829;50.798;4.358;2023-04-09T13:50:47;8.47;;;5.83;;
7575;SDS011;3829;50.798;4.358;2023-04-09T13:53:13;8.40;;;5.43;;
7575;SDS011;3829;50.798;4.358;2023-04-09T13:55:38;8.97;;;5.80;;
7575;SDS011;3829;50.798;4.358;2023-04-09T13:58:04;7.70;;;5.33;;
7575;SDS011;3829;50.798;4.358;2023-04-09T14:00:30;9.63;;;6.70;;
7575;SDS011;3829;50.798;4.358;2023-04-09T14:02:56;8.63;;;6.07;;
7575;SDS011;3829;50.798;4.358;2023-04-09T14:05:22;10.70;;;6.83;;
7575;SDS011;3829;50.798;4.358;2023-04-09T14:07:48;9.57;;;5.90;;
7575;SDS011;3829;50.798;4.358;2023-04-09T14:10:13;6.73;;;6.03;;
7575;SDS011;3829;50.798;4.358;2023-04-09T14:12:39;6.97;;;5.83;;
7575;SDS011;3829;50.798;4.358;2023-04-09T14:15:05;6.53;;;4.57;;
7575;SDS011;3829;50.798;4.358;2023-04-09T14:17:32;6.77;;;5.00;;
7575;SDS011;3829;50.798;4.358;2023-04-09T14:19:57;7.17;;;4.87;;
7575;SDS011;3829;50.798;4.358;2023-04-09T14:22:23;7.17;;;4.27;;
7575;SDS011;3829;50.798;4.358;2023-04-09T14:24:50;5.90;;;4.57;;
7575;SDS011;3829;50.798;4.358;2023-04-09T14:27:16;5.53;;;4.20;;
7575;SDS011;3829;50.798;4.358;2023-04-09T14:29:41;6.87;;;4.23;;
7575;SDS011;3829;50.798;4.358;2023-04-09T14:32:07;6.07;;;4.27;;
7575;SDS011;3829;50.798;4.358;2023-04-09T14:34:33;6.50;;;5.23;;
7575;SDS011;3829;50.798;4.358;2023-04-09T14:36:58;5.60;;;4.97;;
7575;SDS011;3829;50.798;4.358;2023-04-09T14:39:24;5.37;;;4.13;;
7575;SDS011;3829;50.798;4.358;2023-04-09T14:41:50;5.93;;;4.40;;
7575;SDS011;3829;50.798;4.358;2023-04-09T14:44:16;4.30;;;3.60;;
7575;SDS011;3829;50.798;4.358;2023-04-09T14:46:42;10.57;;;3.50;;
7575;SDS011;3829;50.798;4.358;2023-04-09T14:49:08;4.33;;;3.47;;
7575;SDS011;3829;50.798;4.358;2023-04-09T14:51:33;7.33;;;3.50;;
7575;SDS011;3829;50.798;4.358;2023-04-09T14:53:59;5.53;;;3.57;;
7575;SDS011;3829;50.798;4.358;2023-04-09T14:56:25;5.03;;;3.97;;
7575;SDS011;3829;50.798;4.358;2023-04-09T14:58:51;6.23;;;5.03;;
7575;SDS011;3829;50.798;4.358;2023-04-09T15:01:17;6.23;;;4.33;;
7575;SDS011;3829;50.798;4.358;2023-04-09T15:03:42;6.40;;;4.30;;
7575;SDS011;3829;50.798;4.358;2023-04-09T15:06:10;4.60;;;3.93;;
7575;SDS011;3829;50.798;4.358;2023-04-09T15:08:37;4.87;;;4.13;;
7575;SDS011;3829;50.798;4.358;2023-04-09T15:11:03;6.37;;;4.80;;
7575;SDS011;3829;50.798;4.358;2023-04-09T15:13:29;7.73;;;4.77;;
7575;SDS011;3829;50.798;4.358;2023-04-09T15:15:55;5.80;;;4.37;;
7575;SDS011;3829;50.798;4.358;2023-04-09T15:18:20;4.47;;;3.93;;
7575;SDS011;3829;50.798;4.358;2023-04-09T15:20:46;5.80;;;4.43;;
7575;SDS011;3829;50.798;4.358;2023-04-09T15:23:12;7.20;;;4.40;;
7575;SDS011;3829;50.798;4.358;2023-04-09T15:25:37;6.37;;;4.47;;